sensor_id;sensor_type;location;lat;lon;timestamp;P1;durP1;ratioP1;P2;durP2;ratioP2
60312;SDS011;46158;52.850;6.970;2024-02-21T00:01:21;17.23;;;4.40;;
60312;SDS011;46158;52.850;6.970;2024-02-21T00:03:47;14.95;;;4.15;;
60312;SDS011;46158;52.850;6.970;2024-02-21T00:06:13;14.60;;;4.40;;
60312;SDS011;46158;52.850;6.970;2024-02-21T00:08:39;14.90;;;4.10;;
60312;SDS011;46158;52.850;6.970;2024-02-21T00:11:04;13.90;;;4.10;;
60312;SDS011;46158;52.850;6.970;2024-02-21T00:13:30;15.68;;;4.25;;
60312;SDS011;46158;52.850;6.970;2024-02-21T00:15:56;14.63;;;4.15;;
60312;SDS011;46158;52.850;6.970;2024-02-21T00:18:21;12.27;;;4.05;;
60312;SDS011;46158;52.850;6.970;2024-02-21T00:20:47;15.10;;;3.90;;
60312;SDS011;46158;52.850;6.970;2024-02-21T00:23:13;13.68;;;4.20;;
60312;SDS011;46158;52.850;6.970;2024-02-21T00:25:38;13.77;;;3.97;;
60312;SDS011;46158;52.850;6.970;2024-02-21T00:28:04;15.32;;;4.28;;
60312;SDS011;46158;52.850;6.970;2024-02-21T00:30:31;13.30;;;4.13;;
60312;SDS011;46158;52.850;6.970;2024-02-21T00:32:56;16.35;;;4.78;;
60312;SDS011;46158;52.850;6.970;2024-02-21T00:35:22;14.55;;;4.18;;
60312;SDS011;46158;52.850;6.970;2024-02-21T00:37:48;12.75;;;4.00;;
60312;SDS011;46158;52.850;6.970;2024-02-21T00:40:13;14.07;;;3.97;;
60312;SDS011;46158;52.850;6.970;2024-02-21T00:42:44;14.52;;;4.22;;
60312;SDS011;46158;52.850;6.970;2024-02-21T00:45:13;13.70;;;4.15;;
60312;SDS011;46158;52.850;6.970;2024-02-21T00:47:39;14.68;;;3.95;;
60312;SDS011;46158;52.850;6.970;2024-02-21T00:50:05;16.77;;;3.72;;
60312;SDS011;46158;52.850;6.970;2024-02-21T00:52:32;11.00;;;3.75;;
60312;SDS011;46158;52.850;6.970;2024-02-21T00:54:58;14.60;;;4.10;;
60312;SDS011;46158;52.850;6.970;2024-02-21T00:57:24;14.85;;;4.30;;
60312;SDS011;46158;52.850;6.970;2024-02-21T00:59:50;12.00;;;3.55;;
60312;SDS011;46158;52.850;6.970;2024-02-21T01:02:15;12.80;;;4.10;;
60312;SDS011;46158;52.850;6.970;2024-02-21T01:04:41;12.63;;;3.70;;
60312;SDS011;46158;52.850;6.970;2024-02-21T01:07:07;11.70;;;3.60;;
60312;SDS011;46158;52.850;6.970;2024-02-21T01:09:32;15.52;;;4.20;;
60312;SDS011;46158;52.850;6.970;2024-02-21T01:11:58;13.77;;;3.90;;
60312;SDS011;46158;52.850;6.970;2024-02-21T01:14:23;14.38;;;3.63;;
60312;SDS011;46158;52.850;6.970;2024-02-21T01:16:49;11.55;;;3.55;;
60312;SDS011;46158;52.850;6.970;2024-02-21T01:19:15;15.43;;;4.13;;
60312;SDS011;46158;52.850;6.970;2024-02-21T01:21:40;12.90;;;3.65;;
60312;SDS011;46158;52.850;6.970;2024-02-21T01:24:06;13.35;;;3.78;;
60312;SDS011;46158;52.850;6.970;2024-02-21T01:26:31;13.82;;;3.58;;
60312;SDS011;46158;52.850;6.970;2024-02-21T01:28:57;11.73;;;3.35;;
60312;SDS011;46158;52.850;6.970;2024-02-21T01:31:23;12.10;;;3.80;;
60312;SDS011;46158;52.850;6.970;2024-02-21T01:33:48;12.10;;;3.70;;
60312;SDS011;46158;52.850;6.970;2024-02-21T01:36:14;12.48;;;4.15;;
60312;SDS011;46158;52.850;6.970;2024-02-21T01:38:39;12.52;;;3.40;;
60312;SDS011;46158;52.850;6.970;2024-02-21T01:41:05;13.48;;;3.75;;
60312;SDS011;46158;52.850;6.970;2024-02-21T01:43:31;11.60;;;3.70;;
60312;SDS011;46158;52.850;6.970;2024-02-21T01:45:56;14.95;;;3.58;;
60312;SDS011;46158;52.850;6.970;2024-02-21T01:48:22;15.45;;;3.65;;
60312;SDS011;46158;52.850;6.970;2024-02-21T01:50:49;11.55;;;3.60;;
60312;SDS011;46158;52.850;6.970;2024-02-21T01:53:20;12.77;;;3.65;;
60312;SDS011;46158;52.850;6.970;2024-02-21T01:55:48;11.18;;;3.20;;
60312;SDS011;46158;52.850;6.970;2024-02-21T01:58:14;13.75;;;3.60;;
60312;SDS011;46158;52.850;6.970;2024-02-21T02:00:42;11.02;;;3.50;;
60312;SDS011;46158;52.850;6.970;2024-02-21T02:03:11;10.15;;;3.40;;
60312;SDS011;46158;52.850;6.970;2024-02-21T02:05:45;11.80;;;3.70;;
60312;SDS011;46158;52.850;6.970;2024-02-21T02:08:15;10.45;;;3.55;;
60312;SDS011;46158;52.850;6.970;2024-02-21T02:10:41;11.35;;;3.25;;
60312;SDS011;46158;52.850;6.970;2024-02-21T02:13:07;14.45;;;3.67;;
60312;SDS011;46158;52.850;6.970;2024-02-21T02:15:46;9.73;;;3.10;;
60312;SDS011;46158;52.850;6.970;2024-02-21T02:18:13;14.00;;;3.47;;
60312;SDS011;46158;52.850;6.970;2024-02-21T02:20:40;13.27;;;3.20;;
60312;SDS011;46158;52.850;6.970;2024-02-21T02:23:39;10.38;;;3.45;;
60312;SDS011;46158;52.850;6.970;2024-02-21T02:25:58;13.23;;;3.50;;
60312;SDS011;46158;52.850;6.970;2024-02-21T02:28:24;10.07;;;3.20;;
60312;SDS011;46158;52.850;6.970;2024-02-21T02:30:50;10.05;;;3.05;;
60312;SDS011;46158;52.850;6.970;2024-02-21T02:33:16;10.23;;;3.15;;
60312;SDS011;46158;52.850;6.970;2024-02-21T02:35:45;9.70;;;3.30;;
60312;SDS011;46158;52.850;6.970;2024-02-21T02:38:11;12.07;;;3.20;;
60312;SDS011;46158;52.850;6.970;2024-02-21T02:40:38;7.43;;;2.80;;
60312;SDS011;46158;52.850;6.970;2024-02-21T02:43:05;7.93;;;2.88;;
60312;SDS011;46158;52.850;6.970;2024-02-21T02:45:31;10.52;;;2.80;;
60312;SDS011;46158;52.850;6.970;2024-02-21T02:47:57;10.13;;;2.90;;
60312;SDS011;46158;52.850;6.970;2024-02-21T02:50:23;12.65;;;3.15;;
60312;SDS011;46158;52.850;6.970;2024-02-21T02:52:49;9.85;;;2.78;;
60312;SDS011;46158;52.850;6.970;2024-02-21T02:55:15;11.57;;;2.92;;
60312;SDS011;46158;52.850;6.970;2024-02-21T02:57:41;9.95;;;2.72;;
60312;SDS011;46158;52.850;6.970;2024-02-21T03:00:07;8.15;;;2.78;;
60312;SDS011;46158;52.850;6.970;2024-02-21T03:02:34;12.02;;;3.17;;
60312;SDS011;46158;52.850;6.970;2024-02-21T03:05:00;11.27;;;2.97;;
60312;SDS011;46158;52.850;6.970;2024-02-21T03:07:26;9.50;;;2.80;;
60312;SDS011;46158;52.850;6.970;2024-02-21T03:09:51;8.45;;;2.78;;
60312;SDS011;46158;52.850;6.970;2024-02-21T03:12:18;10.13;;;2.53;;
60312;SDS011;46158;52.850;6.970;2024-02-21T03:14:49;12.57;;;2.90;;
60312;SDS011;46158;52.850;6.970;2024-02-21T03:17:18;9.23;;;2.60;;
60312;SDS011;46158;52.850;6.970;2024-02-21T03:19:43;10.40;;;2.65;;
60312;SDS011;46158;52.850;6.970;2024-02-21T03:22:09;9.18;;;2.88;;
60312;SDS011;46158;52.850;6.970;2024-02-21T03:24:34;10.93;;;2.78;;
60312;SDS011;46158;52.850;6.970;2024-02-21T03:27:00;9.18;;;2.60;;
60312;SDS011;46158;52.850;6.970;2024-02-21T03:29:26;10.93;;;3.13;;
60312;SDS011;46158;52.850;6.970;2024-02-21T03:31:51;9.63;;;2.83;;
60312;SDS011;46158;52.850;6.970;2024-02-21T03:34:17;7.75;;;2.65;;
60312;SDS011;46158;52.850;6.970;2024-02-21T03:36:43;10.65;;;2.90;;
60312;SDS011;46158;52.850;6.970;2024-02-21T03:39:08;10.30;;;2.50;;
60312;SDS011;46158;52.850;6.970;2024-02-21T03:41:34;10.32;;;2.70;;
60312;SDS011;46158;52.850;6.970;2024-02-21T03:44:00;6.55;;;2.55;;
60312;SDS011;46158;52.850;6.970;2024-02-21T03:46:26;11.65;;;2.70;;
60312;SDS011;46158;52.850;6.970;2024-02-21T03:48:52;8.55;;;2.65;;
60312;SDS011;46158;52.850;6.970;2024-02-21T03:51:18;8.35;;;2.42;;
60312;SDS011;46158;52.850;6.970;2024-02-21T03:53:43;7.32;;;2.58;;
60312;SDS011;46158;52.850;6.970;2024-02-21T03:56:09;9.93;;;2.78;;
60312;SDS011;46158;52.850;6.970;2024-02-21T03:58:34;8.40;;;2.53;;
60312;SDS011;46158;52.850;6.970;2024-02-21T04:01:00;10.02;;;2.50;;
60312;SDS011;46158;52.850;6.970;2024-02-21T04:03:26;9.88;;;2.45;;
60312;SDS011;46158;52.850;6.970;2024-02-21T04:05:52;6.95;;;2.30;;
60312;SDS011;46158;52.850;6.970;2024-02-21T04:08:18;11.07;;;2.60;;
60312;SDS011;46158;52.850;6.970;2024-02-21T04:10:44;8.88;;;2.58;;
60312;SDS011;46158;52.850;6.970;2024-02-21T04:13:09;7.15;;;2.42;;
60312;SDS011;46158;52.850;6.970;2024-02-21T04:15:35;5.18;;;2.35;;
60312;SDS011;46158;52.850;6.970;2024-02-21T04:18:01;7.50;;;2.45;;
60312;SDS011;46158;52.850;6.970;2024-02-21T04:20:28;9.48;;;2.72;;
60312;SDS011;46158;52.850;6.970;2024-02-21T04:22:54;9.25;;;2.28;;
60312;SDS011;46158;52.850;6.970;2024-02-21T04:25:20;10.32;;;2.70;;
60312;SDS011;46158;52.850;6.970;2024-02-21T04:27:46;9.02;;;2.40;;
60312;SDS011;46158;52.850;6.970;2024-02-21T04:30:12;8.80;;;2.70;;
60312;SDS011;46158;52.850;6.970;2024-02-21T04:32:38;7.88;;;2.35;;
60312;SDS011;46158;52.850;6.970;2024-02-21T04:35:04;8.68;;;2.50;;
60312;SDS011;46158;52.850;6.970;2024-02-21T04:37:30;7.57;;;2.42;;
60312;SDS011;46158;52.850;6.970;2024-02-21T04:39:56;5.97;;;2.30;;
60312;SDS011;46158;52.850;6.970;2024-02-21T04:42:21;8.88;;;2.63;;
60312;SDS011;46158;52.850;6.970;2024-02-21T04:44:47;9.57;;;2.53;;
60312;SDS011;46158;52.850;6.970;2024-02-21T04:47:13;5.15;;;2.10;;
60312;SDS011;46158;52.850;6.970;2024-02-21T04:49:39;6.63;;;2.20;;
60312;SDS011;46158;52.850;6.970;2024-02-21T04:52:04;10.10;;;2.60;;
60312;SDS011;46158;52.850;6.970;2024-02-21T04:54:30;9.38;;;2.90;;
60312;SDS011;46158;52.850;6.970;2024-02-21T04:56:56;8.18;;;2.75;;
60312;SDS011;46158;52.850;6.970;2024-02-21T04:59:21;6.85;;;2.33;;
60312;SDS011;46158;52.850;6.970;2024-02-21T05:01:47;9.00;;;2.30;;
60312;SDS011;46158;52.850;6.970;2024-02-21T05:04:13;6.05;;;2.40;;
60312;SDS011;46158;52.850;6.970;2024-02-21T05:06:39;8.40;;;2.40;;
60312;SDS011;46158;52.850;6.970;2024-02-21T05:09:05;7.53;;;2.40;;
60312;SDS011;46158;52.850;6.970;2024-02-21T05:11:31;8.07;;;2.20;;
60312;SDS011;46158;52.850;6.970;2024-02-21T05:13:57;7.20;;;2.60;;
60312;SDS011;46158;52.850;6.970;2024-02-21T05:16:23;6.43;;;2.05;;
60312;SDS011;46158;52.850;6.970;2024-02-21T05:18:48;7.28;;;2.25;;
60312;SDS011;46158;52.850;6.970;2024-02-21T05:21:14;10.23;;;2.58;;
60312;SDS011;46158;52.850;6.970;2024-02-21T05:23:40;8.25;;;2.40;;
60312;SDS011;46158;52.850;6.970;2024-02-21T05:26:06;5.10;;;2.10;;
60312;SDS011;46158;52.850;6.970;2024-02-21T05:28:31;6.90;;;2.30;;
60312;SDS011;46158;52.850;6.970;2024-02-21T05:30:57;7.68;;;2.35;;
60312;SDS011;46158;52.850;6.970;2024-02-21T05:33:23;8.00;;;2.10;;
60312;SDS011;46158;52.850;6.970;2024-02-21T05:35:50;9.18;;;2.60;;
60312;SDS011;46158;52.850;6.970;2024-02-21T05:38:16;7.13;;;2.30;;
60312;SDS011;46158;52.850;6.970;2024-02-21T05:40:42;8.48;;;2.50;;
60312;SDS011;46158;52.850;6.970;2024-02-21T05:43:09;7.63;;;2.53;;
60312;SDS011;46158;52.850;6.970;2024-02-21T05:45:35;9.65;;;2.50;;
60312;SDS011;46158;52.850;6.970;2024-02-21T05:48:01;10.88;;;2.85;;
60312;SDS011;46158;52.850;6.970;2024-02-21T05:50:27;8.48;;;2.40;;
60312;SDS011;46158;52.850;6.970;2024-02-21T05:52:54;8.73;;;2.53;;
60312;SDS011;46158;52.850;6.970;2024-02-21T05:55:20;9.68;;;2.40;;
60312;SDS011;46158;52.850;6.970;2024-02-21T05:57:46;13.57;;;3.10;;
60312;SDS011;46158;52.850;6.970;2024-02-21T06:00:12;12.18;;;2.67;;
60312;SDS011;46158;52.850;6.970;2024-02-21T06:02:38;11.02;;;2.50;;
60312;SDS011;46158;52.850;6.970;2024-02-21T06:05:05;13.23;;;3.05;;
60312;SDS011;46158;52.850;6.970;2024-02-21T06:07:32;13.45;;;3.05;;
60312;SDS011;46158;52.850;6.970;2024-02-21T06:09:58;10.85;;;2.70;;
60312;SDS011;46158;52.850;6.970;2024-02-21T06:12:24;13.57;;;2.80;;
60312;SDS011;46158;52.850;6.970;2024-02-21T06:14:50;16.02;;;3.08;;
60312;SDS011;46158;52.850;6.970;2024-02-21T06:17:16;17.45;;;3.35;;
60312;SDS011;46158;52.850;6.970;2024-02-21T06:19:42;18.13;;;3.70;;
60312;SDS011;46158;52.850;6.970;2024-02-21T06:22:08;15.52;;;3.20;;
60312;SDS011;46158;52.850;6.970;2024-02-21T06:24:34;17.77;;;3.80;;
60312;SDS011;46158;52.850;6.970;2024-02-21T06:27:01;17.63;;;3.53;;
60312;SDS011;46158;52.850;6.970;2024-02-21T06:29:33;17.17;;;3.55;;
60312;SDS011;46158;52.850;6.970;2024-02-21T06:31:59;17.85;;;3.72;;
60312;SDS011;46158;52.850;6.970;2024-02-21T06:34:25;15.93;;;3.70;;
60312;SDS011;46158;52.850;6.970;2024-02-21T06:36:51;18.55;;;4.03;;
60312;SDS011;46158;52.850;6.970;2024-02-21T06:39:17;16.65;;;3.78;;
60312;SDS011;46158;52.850;6.970;2024-02-21T06:41:43;17.90;;;3.55;;
60312;SDS011;46158;52.850;6.970;2024-02-21T06:44:08;13.90;;;3.55;;
60312;SDS011;46158;52.850;6.970;2024-02-21T06:46:34;16.67;;;3.53;;
60312;SDS011;46158;52.850;6.970;2024-02-21T06:49:00;17.25;;;3.58;;
60312;SDS011;46158;52.850;6.970;2024-02-21T06:51:26;16.98;;;4.03;;
60312;SDS011;46158;52.850;6.970;2024-02-21T06:53:53;15.52;;;3.70;;
60312;SDS011;46158;52.850;6.970;2024-02-21T06:56:22;19.00;;;3.75;;
60312;SDS011;46158;52.850;6.970;2024-02-21T06:58:52;17.23;;;3.92;;
60312;SDS011;46158;52.850;6.970;2024-02-21T07:01:17;20.17;;;3.80;;
60312;SDS011;46158;52.850;6.970;2024-02-21T07:03:43;14.52;;;3.67;;
60312;SDS011;46158;52.850;6.970;2024-02-21T07:06:09;17.90;;;3.90;;
60312;SDS011;46158;52.850;6.970;2024-02-21T07:08:34;16.52;;;3.80;;
60312;SDS011;46158;52.850;6.970;2024-02-21T07:11:00;19.05;;;4.80;;
60312;SDS011;46158;52.850;6.970;2024-02-21T07:13:26;23.65;;;4.20;;
60312;SDS011;46158;52.850;6.970;2024-02-21T07:15:51;20.48;;;4.45;;
60312;SDS011;46158;52.850;6.970;2024-02-21T07:18:17;18.50;;;4.65;;
60312;SDS011;46158;52.850;6.970;2024-02-21T07:20:43;17.73;;;4.30;;
60312;SDS011;46158;52.850;6.970;2024-02-21T07:23:08;20.58;;;4.60;;
60312;SDS011;46158;52.850;6.970;2024-02-21T07:25:34;21.08;;;4.82;;
60312;SDS011;46158;52.850;6.970;2024-02-21T07:28:00;15.45;;;4.20;;
60312;SDS011;46158;52.850;6.970;2024-02-21T07:30:25;19.42;;;4.18;;
60312;SDS011;46158;52.850;6.970;2024-02-21T07:32:51;19.33;;;4.15;;
60312;SDS011;46158;52.850;6.970;2024-02-21T07:35:17;18.58;;;4.38;;
60312;SDS011;46158;52.850;6.970;2024-02-21T07:37:43;15.05;;;4.22;;
60312;SDS011;46158;52.850;6.970;2024-02-21T07:40:12;20.15;;;4.20;;
60312;SDS011;46158;52.850;6.970;2024-02-21T07:42:39;16.30;;;3.85;;
60312;SDS011;46158;52.850;6.970;2024-02-21T07:45:05;17.67;;;4.22;;
60312;SDS011;46158;52.850;6.970;2024-02-21T07:47:32;17.50;;;4.13;;
60312;SDS011;46158;52.850;6.970;2024-02-21T07:49:58;16.20;;;4.18;;
60312;SDS011;46158;52.850;6.970;2024-02-21T07:52:23;16.58;;;4.20;;
60312;SDS011;46158;52.850;6.970;2024-02-21T07:54:49;16.33;;;3.97;;
60312;SDS011;46158;52.850;6.970;2024-02-21T07:57:15;18.88;;;4.05;;
60312;SDS011;46158;52.850;6.970;2024-02-21T07:59:41;16.63;;;4.30;;
60312;SDS011;46158;52.850;6.970;2024-02-21T08:02:07;16.63;;;3.83;;
60312;SDS011;46158;52.850;6.970;2024-02-21T08:04:33;14.98;;;4.15;;
60312;SDS011;46158;52.850;6.970;2024-02-21T08:06:58;16.90;;;4.30;;
60312;SDS011;46158;52.850;6.970;2024-02-21T08:09:26;12.98;;;3.55;;
60312;SDS011;46158;52.850;6.970;2024-02-21T08:11:53;14.73;;;3.80;;
60312;SDS011;46158;52.850;6.970;2024-02-21T08:14:19;12.02;;;3.50;;
60312;SDS011;46158;52.850;6.970;2024-02-21T08:16:45;16.63;;;4.22;;
60312;SDS011;46158;52.850;6.970;2024-02-21T08:19:11;15.02;;;4.10;;
60312;SDS011;46158;52.850;6.970;2024-02-21T08:21:36;14.40;;;3.95;;
60312;SDS011;46158;52.850;6.970;2024-02-21T08:24:02;14.38;;;3.90;;
60312;SDS011;46158;52.850;6.970;2024-02-21T08:26:28;13.40;;;3.67;;
60312;SDS011;46158;52.850;6.970;2024-02-21T08:28:58;12.55;;;3.72;;
60312;SDS011;46158;52.850;6.970;2024-02-21T08:31:25;14.25;;;4.10;;
60312;SDS011;46158;52.850;6.970;2024-02-21T08:33:58;12.10;;;3.47;;
60312;SDS011;46158;52.850;6.970;2024-02-21T08:36:28;14.77;;;3.70;;
60312;SDS011;46158;52.850;6.970;2024-02-21T08:38:57;11.27;;;3.10;;
60312;SDS011;46158;52.850;6.970;2024-02-21T08:41:23;15.30;;;4.00;;
60312;SDS011;46158;52.850;6.970;2024-02-21T08:43:52;13.13;;;3.50;;
60312;SDS011;46158;52.850;6.970;2024-02-21T08:46:22;13.10;;;3.97;;
60312;SDS011;46158;52.850;6.970;2024-02-21T08:48:52;20.75;;;6.13;;
60312;SDS011;46158;52.850;6.970;2024-02-21T08:51:18;19.48;;;7.00;;
60312;SDS011;46158;52.850;6.970;2024-02-21T08:53:44;20.27;;;6.85;;
60312;SDS011;46158;52.850;6.970;2024-02-21T08:56:10;20.25;;;6.75;;
60312;SDS011;46158;52.850;6.970;2024-02-21T08:58:36;20.83;;;7.25;;
60312;SDS011;46158;52.850;6.970;2024-02-21T09:01:02;21.98;;;6.55;;
60312;SDS011;46158;52.850;6.970;2024-02-21T09:03:31;16.25;;;5.50;;
60312;SDS011;46158;52.850;6.970;2024-02-21T09:05:57;20.58;;;6.70;;
60312;SDS011;46158;52.850;6.970;2024-02-21T09:08:23;18.30;;;5.93;;
60312;SDS011;46158;52.850;6.970;2024-02-21T09:10:49;21.92;;;5.70;;
60312;SDS011;46158;52.850;6.970;2024-02-21T09:13:15;17.08;;;5.03;;
60312;SDS011;46158;52.850;6.970;2024-02-21T09:15:40;16.10;;;4.85;;
60312;SDS011;46158;52.850;6.970;2024-02-21T09:18:07;16.38;;;4.90;;
60312;SDS011;46158;52.850;6.970;2024-02-21T09:20:32;15.38;;;4.70;;
60312;SDS011;46158;52.850;6.970;2024-02-21T09:22:58;13.70;;;4.25;;
60312;SDS011;46158;52.850;6.970;2024-02-21T09:25:24;13.07;;;4.22;;
60312;SDS011;46158;52.850;6.970;2024-02-21T09:27:49;16.92;;;4.65;;
60312;SDS011;46158;52.850;6.970;2024-02-21T09:30:17;19.38;;;5.20;;
60312;SDS011;46158;52.850;6.970;2024-02-21T09:32:42;16.92;;;4.75;;
60312;SDS011;46158;52.850;6.970;2024-02-21T09:35:09;13.15;;;4.45;;
60312;SDS011;46158;52.850;6.970;2024-02-21T09:37:35;17.80;;;5.15;;
60312;SDS011;46158;52.850;6.970;2024-02-21T09:40:01;14.65;;;4.50;;
60312;SDS011;46158;52.850;6.970;2024-02-21T09:42:39;15.85;;;4.53;;
60312;SDS011;46158;52.850;6.970;2024-02-21T09:45:27;15.02;;;4.13;;
60312;SDS011;46158;52.850;6.970;2024-02-21T09:48:15;12.63;;;4.15;;
60312;SDS011;46158;52.850;6.970;2024-02-21T09:50:46;16.65;;;4.20;;
60312;SDS011;46158;52.850;6.970;2024-02-21T09:53:14;13.30;;;4.57;;
60312;SDS011;46158;52.850;6.970;2024-02-21T09:55:40;16.15;;;4.45;;
60312;SDS011;46158;52.850;6.970;2024-02-21T09:58:09;13.32;;;4.00;;
60312;SDS011;46158;52.850;6.970;2024-02-21T10:00:36;15.32;;;4.35;;
60312;SDS011;46158;52.850;6.970;2024-02-21T10:03:02;13.30;;;4.03;;
60312;SDS011;46158;52.850;6.970;2024-02-21T10:05:33;12.43;;;4.07;;
60312;SDS011;46158;52.850;6.970;2024-02-21T10:08:00;15.45;;;4.10;;
60312;SDS011;46158;52.850;6.970;2024-02-21T10:10:26;11.88;;;3.85;;
60312;SDS011;46158;52.850;6.970;2024-02-21T10:12:53;11.43;;;3.65;;
60312;SDS011;46158;52.850;6.970;2024-02-21T10:15:23;13.82;;;3.88;;
60312;SDS011;46158;52.850;6.970;2024-02-21T10:17:59;11.90;;;3.85;;
60312;SDS011;46158;52.850;6.970;2024-02-21T10:20:26;31.63;;;5.38;;
60312;SDS011;46158;52.850;6.970;2024-02-21T10:23:02;25.02;;;5.10;;
60312;SDS011;46158;52.850;6.970;2024-02-21T10:25:32;17.92;;;4.22;;
60312;SDS011;46158;52.850;6.970;2024-02-21T10:27:58;12.70;;;3.85;;
60312;SDS011;46158;52.850;6.970;2024-02-21T10:30:24;14.40;;;3.95;;
60312;SDS011;46158;52.850;6.970;2024-02-21T10:32:53;17.33;;;3.85;;
60312;SDS011;46158;52.850;6.970;2024-02-21T10:35:28;11.73;;;4.10;;
60312;SDS011;46158;52.850;6.970;2024-02-21T10:37:56;15.80;;;4.32;;
60312;SDS011;46158;52.850;6.970;2024-02-21T10:40:25;13.02;;;3.58;;
60312;SDS011;46158;52.850;6.970;2024-02-21T10:42:55;18.40;;;3.97;;
60312;SDS011;46158;52.850;6.970;2024-02-21T10:45:25;15.93;;;4.40;;
60312;SDS011;46158;52.850;6.970;2024-02-21T10:50:36;17.80;;;4.10;;
60312;SDS011;46158;52.850;6.970;2024-02-21T10:56:30;21.92;;;4.93;;
60312;SDS011;46158;52.850;6.970;2024-02-21T10:59:00;13.13;;;4.07;;
60312;SDS011;46158;52.850;6.970;2024-02-21T11:01:30;15.30;;;3.90;;
60312;SDS011;46158;52.850;6.970;2024-02-21T11:03:58;16.92;;;4.53;;
60312;SDS011;46158;52.850;6.970;2024-02-21T11:06:26;17.30;;;4.95;;
60312;SDS011;46158;52.850;6.970;2024-02-21T11:09:03;13.25;;;4.15;;
60312;SDS011;46158;52.850;6.970;2024-02-21T11:11:37;15.02;;;4.40;;
60312;SDS011;46158;52.850;6.970;2024-02-21T11:14:08;17.00;;;4.07;;
60312;SDS011;46158;52.850;6.970;2024-02-21T11:16:38;13.48;;;3.92;;
60312;SDS011;46158;52.850;6.970;2024-02-21T11:24:02;11.63;;;3.63;;
60312;SDS011;46158;52.850;6.970;2024-02-21T11:26:29;15.07;;;3.58;;
60312;SDS011;46158;52.850;6.970;2024-02-21T11:28:57;13.15;;;3.55;;
60312;SDS011;46158;52.850;6.970;2024-02-21T11:31:37;15.07;;;3.72;;
60312;SDS011;46158;52.850;6.970;2024-02-21T11:34:04;12.68;;;3.47;;
60312;SDS011;46158;52.850;6.970;2024-02-21T11:36:29;13.88;;;3.40;;
60312;SDS011;46158;52.850;6.970;2024-02-21T11:38:59;15.77;;;3.90;;
60312;SDS011;46158;52.850;6.970;2024-02-21T11:41:29;13.40;;;3.50;;
60312;SDS011;46158;52.850;6.970;2024-02-21T11:43:55;10.70;;;3.25;;
60312;SDS011;46158;52.850;6.970;2024-02-21T11:46:21;11.93;;;3.60;;
60312;SDS011;46158;52.850;6.970;2024-02-21T11:48:46;12.45;;;3.90;;
60312;SDS011;46158;52.850;6.970;2024-02-21T11:51:24;10.60;;;3.28;;
60312;SDS011;46158;52.850;6.970;2024-02-21T11:53:54;10.70;;;3.35;;
60312;SDS011;46158;52.850;6.970;2024-02-21T11:56:19;11.00;;;3.58;;
60312;SDS011;46158;52.850;6.970;2024-02-21T11:58:46;12.27;;;3.67;;
60312;SDS011;46158;52.850;6.970;2024-02-21T12:01:12;12.20;;;4.00;;
60312;SDS011;46158;52.850;6.970;2024-02-21T12:03:38;13.10;;;3.65;;
60312;SDS011;46158;52.850;6.970;2024-02-21T12:06:06;12.27;;;3.38;;
60312;SDS011;46158;52.850;6.970;2024-02-21T12:08:41;12.82;;;3.40;;
60312;SDS011;46158;52.850;6.970;2024-02-21T12:11:20;10.40;;;3.33;;
60312;SDS011;46158;52.850;6.970;2024-02-21T12:14:02;11.50;;;3.55;;
60312;SDS011;46158;52.850;6.970;2024-02-21T12:16:29;14.13;;;3.78;;
60312;SDS011;46158;52.850;6.970;2024-02-21T12:18:59;11.07;;;3.45;;
60312;SDS011;46158;52.850;6.970;2024-02-21T12:21:25;11.48;;;3.80;;
60312;SDS011;46158;52.850;6.970;2024-02-21T12:23:53;12.10;;;3.55;;
60312;SDS011;46158;52.850;6.970;2024-02-21T12:26:20;14.00;;;3.67;;
60312;SDS011;46158;52.850;6.970;2024-02-21T12:28:45;11.68;;;3.85;;
60312;SDS011;46158;52.850;6.970;2024-02-21T12:31:11;9.00;;;3.15;;
60312;SDS011;46158;52.850;6.970;2024-02-21T12:33:37;11.82;;;3.50;;
60312;SDS011;46158;52.850;6.970;2024-02-21T12:36:03;11.30;;;3.58;;
60312;SDS011;46158;52.850;6.970;2024-02-21T12:38:29;13.32;;;3.78;;
60312;SDS011;46158;52.850;6.970;2024-02-21T12:40:55;10.40;;;3.30;;
60312;SDS011;46158;52.850;6.970;2024-02-21T12:43:22;10.45;;;3.47;;
60312;SDS011;46158;52.850;6.970;2024-02-21T12:45:48;8.43;;;3.45;;
60312;SDS011;46158;52.850;6.970;2024-02-21T12:48:14;11.27;;;3.28;;
60312;SDS011;46158;52.850;6.970;2024-02-21T12:50:41;9.70;;;3.30;;
60312;SDS011;46158;52.850;6.970;2024-02-21T12:53:14;7.20;;;2.97;;
60312;SDS011;46158;52.850;6.970;2024-02-21T12:55:41;9.18;;;3.25;;
60312;SDS011;46158;52.850;6.970;2024-02-21T12:58:06;8.30;;;3.30;;
60312;SDS011;46158;52.850;6.970;2024-02-21T13:00:32;9.30;;;3.00;;
60312;SDS011;46158;52.850;6.970;2024-02-21T13:02:58;7.20;;;3.00;;
60312;SDS011;46158;52.850;6.970;2024-02-21T13:05:24;9.10;;;2.97;;
60312;SDS011;46158;52.850;6.970;2024-02-21T13:07:49;9.00;;;3.03;;
60312;SDS011;46158;52.850;6.970;2024-02-21T13:10:15;9.73;;;3.00;;
60312;SDS011;46158;52.850;6.970;2024-02-21T13:12:41;7.10;;;2.58;;
60312;SDS011;46158;52.850;6.970;2024-02-21T13:15:06;6.72;;;2.80;;
60312;SDS011;46158;52.850;6.970;2024-02-21T13:17:35;9.45;;;2.97;;
60312;SDS011;46158;52.850;6.970;2024-02-21T13:20:00;6.57;;;2.63;;
60312;SDS011;46158;52.850;6.970;2024-02-21T13:22:26;7.25;;;2.75;;
60312;SDS011;46158;52.850;6.970;2024-02-21T13:24:51;7.80;;;2.80;;
60312;SDS011;46158;52.850;6.970;2024-02-21T13:27:17;6.43;;;2.70;;
60312;SDS011;46158;52.850;6.970;2024-02-21T13:29:43;9.20;;;2.80;;
60312;SDS011;46158;52.850;6.970;2024-02-21T13:32:08;7.60;;;2.88;;
60312;SDS011;46158;52.850;6.970;2024-02-21T13:34:34;7.30;;;2.80;;
60312;SDS011;46158;52.850;6.970;2024-02-21T13:36:59;6.43;;;2.42;;
60312;SDS011;46158;52.850;6.970;2024-02-21T13:39:25;9.57;;;2.80;;
60312;SDS011;46158;52.850;6.970;2024-02-21T13:41:50;7.43;;;2.50;;
60312;SDS011;46158;52.850;6.970;2024-02-21T13:44:16;6.65;;;2.70;;
60312;SDS011;46158;52.850;6.970;2024-02-21T13:46:42;6.57;;;2.63;;
60312;SDS011;46158;52.850;6.970;2024-02-21T13:49:07;5.68;;;2.40;;
60312;SDS011;46158;52.850;6.970;2024-02-21T13:51:36;5.18;;;2.40;;
60312;SDS011;46158;52.850;6.970;2024-02-21T13:54:04;5.20;;;2.30;;
60312;SDS011;46158;52.850;6.970;2024-02-21T13:56:34;4.72;;;2.42;;
60312;SDS011;46158;52.850;6.970;2024-02-21T13:59:00;6.60;;;2.40;;
60312;SDS011;46158;52.850;6.970;2024-02-21T14:01:26;6.72;;;2.42;;
60312;SDS011;46158;52.850;6.970;2024-02-21T14:03:53;4.45;;;2.20;;
60312;SDS011;46158;52.850;6.970;2024-02-21T14:06:19;7.82;;;2.50;;
60312;SDS011;46158;52.850;6.970;2024-02-21T14:08:44;4.93;;;2.42;;
60312;SDS011;46158;52.850;6.970;2024-02-21T14:11:10;5.85;;;2.40;;
60312;SDS011;46158;52.850;6.970;2024-02-21T14:13:36;5.78;;;2.42;;
60312;SDS011;46158;52.850;6.970;2024-02-21T14:16:02;5.88;;;2.40;;
60312;SDS011;46158;52.850;6.970;2024-02-21T14:18:28;5.75;;;2.50;;
60312;SDS011;46158;52.850;6.970;2024-02-21T14:20:54;3.97;;;2.03;;
60312;SDS011;46158;52.850;6.970;2024-02-21T14:23:20;7.00;;;2.42;;
60312;SDS011;46158;52.850;6.970;2024-02-21T14:25:46;5.50;;;2.22;;
60312;SDS011;46158;52.850;6.970;2024-02-21T14:28:11;4.78;;;2.30;;
60312;SDS011;46158;52.850;6.970;2024-02-21T14:30:37;6.60;;;2.60;;
60312;SDS011;46158;52.850;6.970;2024-02-21T14:33:03;5.05;;;2.50;;
60312;SDS011;46158;52.850;6.970;2024-02-21T14:35:28;6.97;;;2.47;;
60312;SDS011;46158;52.850;6.970;2024-02-21T14:37:54;6.40;;;2.35;;
60312;SDS011;46158;52.850;6.970;2024-02-21T14:40:22;4.80;;;2.08;;
60312;SDS011;46158;52.850;6.970;2024-02-21T14:42:48;7.20;;;2.50;;
60312;SDS011;46158;52.850;6.970;2024-02-21T14:45:13;4.80;;;2.35;;
60312;SDS011;46158;52.850;6.970;2024-02-21T14:47:39;4.70;;;2.13;;